createdAt,value
2022-08-19T00:01:58.999Z,12.73
2022-08-19T00:04:31.175Z,12.30
2022-08-19T00:06:59.659Z,12.27
2022-08-19T00:09:26.947Z,13.10
2022-08-19T00:11:56.282Z,12.70
2022-08-19T00:14:25.655Z,11.97
2022-08-19T00:16:55.192Z,12.80
2022-08-19T00:19:24.475Z,12.87
2022-08-19T00:21:52.506Z,12.93
2022-08-19T00:24:19.812Z,13.07
2022-08-19T00:26:47.468Z,14.10
2022-08-19T00:29:19.347Z,13.13
2022-08-19T00:31:47.153Z,13.00
2022-08-19T00:34:15.781Z,14.13
2022-08-19T00:36:44.375Z,13.40
2022-08-19T00:39:12.811Z,13.97
2022-08-19T00:41:41.634Z,13.53
2022-08-19T00:44:13.567Z,13.80
2022-08-19T00:46:45.289Z,14.27
2022-08-19T00:49:41.709Z,14.70
2022-08-19T00:52:25.453Z,14.53
2022-08-19T00:54:54.243Z,13.40
2022-08-19T00:57:33.589Z,13.47
2022-08-19T01:00:03.430Z,14.87
2022-08-19T01:02:33.348Z,13.27
2022-08-19T01:05:05.171Z,12.63
2022-08-19T01:07:35.720Z,13.90
2022-08-19T01:10:09.826Z,14.47
2022-08-19T01:12:37.737Z,13.33
2022-08-19T01:15:11.046Z,13.40
2022-08-19T01:17:40.751Z,13.90
2022-08-19T01:20:14.709Z,14.10
2022-08-19T01:22:48.948Z,12.73
2022-08-19T01:25:21.886Z,13.50
2022-08-19T01:27:53.489Z,14.43
2022-08-19T01:30:31.109Z,14.87
2022-08-19T01:33:00.798Z,14.47
2022-08-19T01:35:32.361Z,14.00
2022-08-19T01:38:08.617Z,14.53
2022-08-19T01:40:40.526Z,13.80
2022-08-19T01:43:07.579Z,14.37
2022-08-19T01:45:36.062Z,14.50
2022-08-19T01:48:03.794Z,13.50
2022-08-19T01:50:34.557Z,15.13
2022-08-19T01:53:06.646Z,14.10
2022-08-19T01:55:41.657Z,13.67
2022-08-19T01:58:21.550Z,13.97
2022-08-19T02:00:49.193Z,14.00
2022-08-19T02:03:16.826Z,12.90
2022-08-19T02:05:44.943Z,14.50
2022-08-19T02:08:12.435Z,14.47
2022-08-19T02:10:44.413Z,13.60
2022-08-19T02:13:12.956Z,15.60
2022-08-19T02:15:40.409Z,14.23
2022-08-19T02:18:08.243Z,14.27
2022-08-19T02:20:36.625Z,14.63
2022-08-19T02:23:03.387Z,13.53
2022-08-19T02:25:30.373Z,13.23
2022-08-19T02:27:57.653Z,13.37
2022-08-19T02:30:27.874Z,14.37
2022-08-19T02:32:54.921Z,15.30
2022-08-19T02:35:22.408Z,15.07
2022-08-19T02:38:12.580Z,14.13
2022-08-19T02:40:39.374Z,14.60
2022-08-19T02:43:09.452Z,13.73
2022-08-19T02:45:40.586Z,14.23
2022-08-19T02:48:17.937Z,13.40
2022-08-19T02:50:56.106Z,14.13
2022-08-19T02:53:26.793Z,14.57
2022-08-19T02:55:53.600Z,15.33
2022-08-19T02:58:22.915Z,14.57
2022-08-19T03:00:56.476Z,15.13
2022-08-19T03:03:24.361Z,13.90
2022-08-19T03:05:56.813Z,14.30
2022-08-19T03:08:26.685Z,15.07
2022-08-19T03:10:53.934Z,15.07
2022-08-19T03:13:21.325Z,14.33
2022-08-19T03:15:49.146Z,15.63
2022-08-19T03:18:17.941Z,14.20
2022-08-19T03:20:51.154Z,14.53
2022-08-19T03:23:18.244Z,13.77
2022-08-19T03:25:58.351Z,14.83
2022-08-19T03:28:36.247Z,16.30
2022-08-19T03:31:44.351Z,15.87
2022-08-19T03:33:55.319Z,16.07
2022-08-19T03:36:28.597Z,14.77
2022-08-19T03:39:01.249Z,17.30
2022-08-19T03:41:44.568Z,17.40
2022-08-19T03:44:17.794Z,16.03
2022-08-19T03:46:51.518Z,17.80
2022-08-19T03:49:19.930Z,15.40
2022-08-19T03:51:49.115Z,16.27
2022-08-19T03:54:20.384Z,16.00
2022-08-19T03:56:50.127Z,15.20
2022-08-19T03:59:30.757Z,14.97
2022-08-19T04:02:01.926Z,14.47
2022-08-19T04:04:29.751Z,16.87
2022-08-19T04:06:59.550Z,14.53
2022-08-19T04:09:26.808Z,16.17
2022-08-19T04:11:57.152Z,16.20
2022-08-19T04:14:30.861Z,14.87
2022-08-19T04:16:59.313Z,13.83
2022-08-19T04:19:27.019Z,14.87
2022-08-19T04:21:55.476Z,14.90
2022-08-19T04:24:24.336Z,15.33
2022-08-19T04:26:51.703Z,15.30
2022-08-19T04:29:26.215Z,14.97
2022-08-19T04:31:55.472Z,15.00
2022-08-19T04:34:25.742Z,15.57
2022-08-19T04:36:55.280Z,13.77
2022-08-19T04:39:49.630Z,14.90
2022-08-19T04:42:37.826Z,15.07
2022-08-19T04:45:12.419Z,14.87
2022-08-19T04:47:49.251Z,15.07
2022-08-19T04:50:27.522Z,15.43
2022-08-19T04:52:56.280Z,14.60
2022-08-19T04:55:23.936Z,14.43
2022-08-19T04:57:51.586Z,14.33
2022-08-19T05:00:18.531Z,14.33
2022-08-19T05:02:45.311Z,13.03
2022-08-19T05:05:13.092Z,15.03
2022-08-19T05:07:40.961Z,14.07
2022-08-19T05:10:08.614Z,15.90
2022-08-19T05:12:35.438Z,14.10
2022-08-19T05:15:09.243Z,13.87
2022-08-19T05:17:38.661Z,14.37
2022-08-19T05:20:26.758Z,14.03
2022-08-19T05:22:53.962Z,14.00
2022-08-19T05:25:22.765Z,14.50
2022-08-19T05:27:49.821Z,14.43
2022-08-19T05:30:17.810Z,14.27
2022-08-19T05:32:45.005Z,14.03
2022-08-19T05:35:12.541Z,13.20
2022-08-19T05:37:41.144Z,13.20
2022-08-19T05:40:09.908Z,14.40
2022-08-19T05:42:36.811Z,15.13
2022-08-19T05:45:05.336Z,13.67
2022-08-19T05:47:32.989Z,14.60
2022-08-19T05:50:00.441Z,13.70
2022-08-19T05:52:28.964Z,14.77
2022-08-19T05:54:57.309Z,12.73
2022-08-19T05:57:25.611Z,13.83
2022-08-19T05:59:58.090Z,14.43
2022-08-19T06:02:31.611Z,13.77
2022-08-19T06:04:58.861Z,14.33
2022-08-19T06:07:26.273Z,14.10
2022-08-19T06:09:54.409Z,13.63
2022-08-19T06:12:29.561Z,12.57
2022-08-19T06:15:00.767Z,12.97
2022-08-19T06:17:30.819Z,14.73
2022-08-19T06:19:57.783Z,13.60
2022-08-19T06:22:24.790Z,15.33
2022-08-19T06:24:54.741Z,13.60
2022-08-19T06:27:22.986Z,14.47
2022-08-19T06:29:50.307Z,14.37
2022-08-19T06:32:19.777Z,15.30
2022-08-19T06:34:47.377Z,13.23
2022-08-19T06:37:14.614Z,14.10
2022-08-19T06:39:45.846Z,13.13
2022-08-19T06:42:16.987Z,12.53
2022-08-19T06:44:49.259Z,12.63
2022-08-19T06:47:23.850Z,14.00
2022-08-19T06:50:05.371Z,12.37
2022-08-19T06:52:36.412Z,13.30
2022-08-19T06:55:06.336Z,12.90
2022-08-19T06:57:34.635Z,14.43
2022-08-19T07:00:01.980Z,14.20
2022-08-19T07:02:28.934Z,13.80
2022-08-19T07:04:58.746Z,13.60
2022-08-19T07:07:26.168Z,14.03
2022-08-19T07:09:58.984Z,12.80
2022-08-19T07:12:33.793Z,13.23
2022-08-19T07:15:04.441Z,13.83
2022-08-19T07:17:31.758Z,12.30
2022-08-19T07:20:05.505Z,13.40
2022-08-19T07:22:35.248Z,14.27
2022-08-19T07:25:04.650Z,13.43
2022-08-19T07:27:33.611Z,12.37
2022-08-19T07:30:00.929Z,11.10
2022-08-19T07:32:28.032Z,12.03
2022-08-19T07:34:56.293Z,12.03
2022-08-19T07:37:32.004Z,11.20
2022-08-19T07:40:00.909Z,10.77
2022-08-19T07:42:30.404Z,11.17
2022-08-19T07:44:58.084Z,9.93
2022-08-19T07:47:47.447Z,10.47
2022-08-19T07:50:12.755Z,10.40
2022-08-19T07:52:40.675Z,9.53
2022-08-19T07:55:39.780Z,10.30
2022-08-19T07:57:57.956Z,9.90
2022-08-19T08:00:24.964Z,9.37
2022-08-19T08:02:55.679Z,9.70
2022-08-19T08:05:44.159Z,10.10
2022-08-19T08:08:33.066Z,9.00
2022-08-19T08:11:01.483Z,9.33
2022-08-19T08:13:29.279Z,8.70
2022-08-19T08:15:57.224Z,7.90
2022-08-19T08:18:27.489Z,8.20
2022-08-19T08:20:57.052Z,9.30
2022-08-19T08:23:30.077Z,9.03
2022-08-19T08:25:59.102Z,8.77
2022-08-19T08:28:30.851Z,9.03
2022-08-19T08:30:58.657Z,9.20
2022-08-19T08:33:34.353Z,9.07
2022-08-19T08:36:09.819Z,8.40
2022-08-19T08:38:40.286Z,8.70
2022-08-19T08:41:41.902Z,8.57
2022-08-19T08:44:20.081Z,8.70
2022-08-19T08:46:56.106Z,10.10
2022-08-19T08:49:47.315Z,9.43
2022-08-19T08:52:45.255Z,8.73
2022-08-19T08:55:21.463Z,9.57
2022-08-19T08:58:03.759Z,9.53
2022-08-19T09:00:41.626Z,8.57
2022-08-19T09:03:27.804Z,9.73
2022-08-19T09:06:05.291Z,10.93
2022-08-19T09:09:04.764Z,10.67
2022-08-19T09:11:47.953Z,10.67
2022-08-19T09:14:50.662Z,9.57
2022-08-19T09:17:27.641Z,9.43
2022-08-19T09:20:05.602Z,9.33
2022-08-19T09:22:33.463Z,9.43
2022-08-19T09:25:00.968Z,9.53
2022-08-19T09:27:35.573Z,9.53
2022-08-19T09:30:19.098Z,9.87
2022-08-19T09:32:47.673Z,9.53
2022-08-19T09:35:23.333Z,10.37
2022-08-19T09:37:57.368Z,11.40
2022-08-19T09:40:31.992Z,10.30
2022-08-19T09:43:09.975Z,10.07
2022-08-19T09:45:39.842Z,10.80
2022-08-19T09:48:07.067Z,10.57
2022-08-19T09:50:35.014Z,9.77
2022-08-19T09:53:01.855Z,10.00
2022-08-19T09:55:31.568Z,10.90
2022-08-19T09:58:02.195Z,10.77
2022-08-19T10:00:29.390Z,12.03
2022-08-19T10:02:56.190Z,12.50
2022-08-19T10:05:42.313Z,12.07
2022-08-19T10:08:13.513Z,12.53
2022-08-19T10:10:46.645Z,13.17
2022-08-19T10:13:20.761Z,15.07
2022-08-19T10:15:49.427Z,15.67
2022-08-19T10:18:20.624Z,14.27
2022-08-19T10:20:51.430Z,14.60
2022-08-19T10:23:21.624Z,13.73
2022-08-19T10:25:50.478Z,13.67
2022-08-19T10:28:19.201Z,15.83
2022-08-19T10:30:48.419Z,14.67
2022-08-19T10:33:16.038Z,13.93
2022-08-19T10:36:08.417Z,15.30
2022-08-19T10:38:36.085Z,14.03
2022-08-19T10:41:17.038Z,15.97
2022-08-19T10:43:45.933Z,14.80
2022-08-19T10:46:16.445Z,15.07
2022-08-19T10:48:46.062Z,15.10
2022-08-19T10:51:32.156Z,14.37
2022-08-19T10:54:00.591Z,17.30
2022-08-19T10:56:47.604Z,17.07
2022-08-19T10:59:16.533Z,15.60
2022-08-19T11:01:46.224Z,17.20
2022-08-19T11:04:14.511Z,15.07
2022-08-19T11:06:44.338Z,16.07
2022-08-19T11:09:12.539Z,15.87
2022-08-19T11:11:42.945Z,18.03
2022-08-19T11:14:16.059Z,16.40
2022-08-19T11:16:43.722Z,15.87
2022-08-19T11:19:14.937Z,16.30
2022-08-19T11:21:45.819Z,16.10
2022-08-19T11:24:21.244Z,17.57
2022-08-19T11:26:51.381Z,15.37
2022-08-19T11:29:21.108Z,16.53
2022-08-19T11:31:50.694Z,15.37
2022-08-19T11:34:24.094Z,15.67
2022-08-19T11:36:52.411Z,17.13
2022-08-19T11:39:22.384Z,18.43
2022-08-19T11:41:49.843Z,17.20
2022-08-19T11:44:16.781Z,16.63
2022-08-19T11:46:47.325Z,15.87
2022-08-19T11:49:25.360Z,17.13
2022-08-19T11:51:53.730Z,16.80
2022-08-19T11:54:20.692Z,16.77
2022-08-19T11:56:49.872Z,15.90
2022-08-19T11:59:16.887Z,16.77
2022-08-19T12:01:44.400Z,15.00
2022-08-19T12:04:11.833Z,15.67
2022-08-19T12:06:42.072Z,17.40
2022-08-19T12:09:11.600Z,16.83
2022-08-19T12:11:41.325Z,16.27
2022-08-19T12:14:14.974Z,16.10
2022-08-19T12:16:50.420Z,16.47
2022-08-19T12:19:21.916Z,17.63
2022-08-19T12:21:50.944Z,18.13
2022-08-19T12:24:23.889Z,16.90
2022-08-19T12:26:53.749Z,17.90
2022-08-19T12:29:23.942Z,15.83
2022-08-19T12:31:52.063Z,16.30
2022-08-19T12:34:20.863Z,16.10
2022-08-19T12:36:50.055Z,17.77
2022-08-19T12:39:16.900Z,16.20
2022-08-19T12:41:51.382Z,14.80
2022-08-19T12:44:21.579Z,15.50
2022-08-19T12:46:57.931Z,16.07
2022-08-19T12:49:47.126Z,14.00
2022-08-19T12:52:16.504Z,14.97
2022-08-19T12:54:48.365Z,15.00
2022-08-19T12:57:32.882Z,14.10
2022-08-19T13:00:17.324Z,13.97
2022-08-19T13:02:50.549Z,14.27
2022-08-19T13:05:26.906Z,13.93
2022-08-19T13:07:56.881Z,14.70
2022-08-19T13:10:28.643Z,13.77
2022-08-19T13:12:56.578Z,13.83
2022-08-19T13:15:24.596Z,13.53
2022-08-19T13:17:54.711Z,14.23
2022-08-19T13:20:22.468Z,14.23
2022-08-19T13:22:49.744Z,14.37
2022-08-19T13:25:20.077Z,14.20
2022-08-19T13:27:50.035Z,13.60
2022-08-19T13:30:38.900Z,12.93
2022-08-19T13:33:12.881Z,14.93
2022-08-19T13:35:42.613Z,13.67
2022-08-19T13:38:11.785Z,13.47
2022-08-19T13:40:41.206Z,13.83
2022-08-19T13:43:12.454Z,14.43
2022-08-19T13:45:56.964Z,14.90
2022-08-19T13:48:27.666Z,13.47
2022-08-19T13:50:54.967Z,14.07
2022-08-19T13:53:22.011Z,14.43
2022-08-19T13:55:49.520Z,13.57
2022-08-19T13:58:16.307Z,15.43
2022-08-19T14:00:46.468Z,14.70
2022-08-19T14:03:13.394Z,14.77
2022-08-19T14:05:40.350Z,14.20
2022-08-19T14:08:07.330Z,14.90
2022-08-19T14:10:34.401Z,15.80
2022-08-19T14:13:04.400Z,15.60
2022-08-19T14:15:32.154Z,15.50
2022-08-19T14:17:59.326Z,14.87
2022-08-19T14:20:27.067Z,15.73
2022-08-19T14:22:55.590Z,12.83
2022-08-19T14:25:29.683Z,12.67
2022-08-19T14:27:57.758Z,13.87
2022-08-19T14:30:29.895Z,13.23
2022-08-19T14:32:59.159Z,12.57
2022-08-19T14:35:28.757Z,12.27
2022-08-19T14:37:57.014Z,12.40
2022-08-19T14:40:28.026Z,11.17
2022-08-19T14:43:04.613Z,11.93
2022-08-19T14:45:35.730Z,11.40
2022-08-19T14:48:05.459Z,9.30
2022-08-19T14:50:34.963Z,8.90
2022-08-19T14:53:12.774Z,8.63
2022-08-19T14:55:47.159Z,8.67
2022-08-19T14:58:29.266Z,8.67
2022-08-19T15:01:00.085Z,8.73
2022-08-19T15:03:27.486Z,8.13
2022-08-19T15:05:54.655Z,8.70
2022-08-19T15:08:23.359Z,7.70
2022-08-19T15:10:50.139Z,7.83
2022-08-19T15:13:17.383Z,8.23
2022-08-19T15:15:44.134Z,8.13
2022-08-19T15:18:13.154Z,7.17
2022-08-19T15:20:40.818Z,7.00
2022-08-19T15:23:09.117Z,7.70
2022-08-19T15:25:36.343Z,7.77
2022-08-19T15:28:04.269Z,7.23
2022-08-19T15:30:31.239Z,7.70
2022-08-19T15:32:59.005Z,10.97
2022-08-19T15:35:26.774Z,7.97
2022-08-19T15:37:56.483Z,8.83
2022-08-19T15:40:26.036Z,8.53
2022-08-19T15:42:53.940Z,9.17
2022-08-19T15:45:22.288Z,9.60
2022-08-19T15:47:49.527Z,9.07
2022-08-19T15:50:23.705Z,10.40
2022-08-19T15:52:58.257Z,10.87
2022-08-19T15:55:36.026Z,11.93
2022-08-19T15:58:27.923Z,10.93
2022-08-19T16:01:22.841Z,12.23
2022-08-19T16:04:14.768Z,11.47
2022-08-19T16:07:03.410Z,11.70
2022-08-19T16:09:32.579Z,10.53
2022-08-19T16:12:03.913Z,11.50
2022-08-19T16:14:33.829Z,12.90
2022-08-19T16:17:01.823Z,12.10
2022-08-19T16:19:28.557Z,11.60
2022-08-19T16:21:57.209Z,11.83
2022-08-19T16:24:27.773Z,10.70
2022-08-19T16:26:55.835Z,11.17
2022-08-19T16:29:33.901Z,10.60
2022-08-19T16:32:04.693Z,9.57
2022-08-19T16:34:33.718Z,9.63
2022-08-19T16:37:00.807Z,9.90
2022-08-19T16:39:27.596Z,10.27
2022-08-19T16:41:54.394Z,10.80
2022-08-19T16:44:21.443Z,11.33
2022-08-19T16:46:58.444Z,11.50
2022-08-19T16:49:53.817Z,11.27
2022-08-19T16:52:16.294Z,10.37
2022-08-19T16:54:44.622Z,9.83
2022-08-19T16:57:12.913Z,10.33
2022-08-19T16:59:48.470Z,9.57
2022-08-19T17:02:19.210Z,9.90
2022-08-19T17:04:57.612Z,9.10
2022-08-19T17:07:33.524Z,9.37
2022-08-19T17:10:02.751Z,9.03
2022-08-19T17:12:32.248Z,9.07
2022-08-19T17:15:02.363Z,8.70
2022-08-19T17:17:31.015Z,9.40
2022-08-19T17:20:00.489Z,8.90
2022-08-19T17:22:27.589Z,8.60
2022-08-19T17:24:56.382Z,10.10
2022-08-19T17:27:26.645Z,9.50
2022-08-19T17:29:53.471Z,9.23
2022-08-19T17:32:25.146Z,8.67
2022-08-19T17:34:54.010Z,8.43
2022-08-19T17:37:20.993Z,7.97
2022-08-19T17:39:47.779Z,7.73
2022-08-19T17:42:14.657Z,7.60
2022-08-19T17:44:42.038Z,7.23
2022-08-19T17:47:08.866Z,7.20
2022-08-19T17:49:37.423Z,7.67
2022-08-19T17:52:09.447Z,6.87
2022-08-19T17:54:36.830Z,6.53
2022-08-19T17:57:03.802Z,7.47
2022-08-19T17:59:30.650Z,6.30
2022-08-19T18:02:00.012Z,6.57
2022-08-19T18:04:29.331Z,7.37
2022-08-19T18:06:56.470Z,7.40
2022-08-19T18:09:28.522Z,7.33
2022-08-19T18:11:58.901Z,6.13
2022-08-19T18:14:33.740Z,6.50
2022-08-19T18:17:08.889Z,5.70
2022-08-19T18:19:41.017Z,6.17
2022-08-19T18:22:36.335Z,6.13
2022-08-19T18:25:09.787Z,6.40
2022-08-19T18:27:36.825Z,8.67
2022-08-19T18:30:07.212Z,6.10
2022-08-19T18:32:38.446Z,5.63
2022-08-19T18:35:16.265Z,5.50
2022-08-19T18:37:44.913Z,5.73
2022-08-19T18:40:36.637Z,6.03
2022-08-19T18:43:16.902Z,6.53
2022-08-19T18:46:03.056Z,5.30
2022-08-19T18:48:49.421Z,5.37
2022-08-19T18:51:17.709Z,5.90
2022-08-19T18:53:47.116Z,5.03
2022-08-19T18:56:19.553Z,6.10
2022-08-19T18:58:47.066Z,5.80
2022-08-19T19:01:34.333Z,5.17
2022-08-19T19:04:13.187Z,4.90
2022-08-19T19:06:42.529Z,5.50
2022-08-19T19:09:13.864Z,6.33
2022-08-19T19:11:44.758Z,5.87
2022-08-19T19:14:27.608Z,5.13
2022-08-19T19:17:06.576Z,5.17
2022-08-19T19:19:34.598Z,5.10
2022-08-19T19:22:04.601Z,4.90
2022-08-19T19:24:33.421Z,4.00
2022-08-19T19:27:06.758Z,4.23
2022-08-19T19:29:36.528Z,5.17
2022-08-19T19:32:10.810Z,4.47
2022-08-19T19:34:39.223Z,4.30
2022-08-19T19:37:06.432Z,3.90
2022-08-19T19:39:46.267Z,4.13
2022-08-19T19:42:20.120Z,4.70
2022-08-19T19:44:51.759Z,4.40
2022-08-19T19:47:19.805Z,4.30
2022-08-19T19:50:13.377Z,4.87
2022-08-19T19:52:40.507Z,5.17
2022-08-19T19:55:09.321Z,4.63
2022-08-19T19:57:36.093Z,5.03
2022-08-19T20:00:04.350Z,5.73
2022-08-19T20:02:31.117Z,4.37
2022-08-19T20:04:58.784Z,5.03
2022-08-19T20:07:46.103Z,4.90
2022-08-19T20:10:13.651Z,5.60
2022-08-19T20:12:40.496Z,4.87
2022-08-19T20:15:08.941Z,4.87
2022-08-19T20:17:41.134Z,4.67
2022-08-19T20:20:14.957Z,5.00
2022-08-19T20:22:43.152Z,4.83
2022-08-19T20:25:18.978Z,4.80
2022-08-19T20:27:49.963Z,4.67
2022-08-19T20:30:20.864Z,4.57
2022-08-19T20:32:50.815Z,5.03
2022-08-19T20:35:21.353Z,4.57
2022-08-19T20:37:52.881Z,4.93
2022-08-19T20:40:22.903Z,4.30
2022-08-19T20:42:50.542Z,5.00
2022-08-19T20:45:33.134Z,5.63
2022-08-19T20:48:03.096Z,4.70
2022-08-19T20:50:35.180Z,5.73
2022-08-19T20:53:10.340Z,5.50
2022-08-19T20:55:37.077Z,5.07
2022-08-19T20:58:04.138Z,4.97
2022-08-19T21:00:31.211Z,4.63
2022-08-19T21:02:58.012Z,4.93
2022-08-19T21:05:30.236Z,5.30
2022-08-19T21:07:57.834Z,4.63
2022-08-19T21:10:26.082Z,5.03
2022-08-19T21:12:53.445Z,4.67
2022-08-19T21:15:20.259Z,5.13
2022-08-19T21:17:48.598Z,5.57
2022-08-19T21:20:16.557Z,5.60
2022-08-19T21:22:49.405Z,5.50
2022-08-19T21:25:18.083Z,5.40
2022-08-19T21:27:44.854Z,5.27
2022-08-19T21:30:12.692Z,6.10
2022-08-19T21:32:39.581Z,5.43
2022-08-19T21:35:06.899Z,5.63
2022-08-19T21:37:34.771Z,6.57
2022-08-19T21:40:01.619Z,5.17
2022-08-19T21:42:28.485Z,5.10
2022-08-19T21:44:55.257Z,6.20
2022-08-19T21:47:22.070Z,5.60
2022-08-19T21:49:49.024Z,6.13
2022-08-19T21:52:27.676Z,6.27
2022-08-19T21:54:55.602Z,5.67
2022-08-19T21:57:24.489Z,7.17
2022-08-19T21:59:52.973Z,6.20
2022-08-19T22:02:21.477Z,6.07
2022-08-19T22:04:51.546Z,6.27
2022-08-19T22:07:21.423Z,5.80
2022-08-19T22:09:50.790Z,6.10
2022-08-19T22:12:30.226Z,6.20
2022-08-19T22:14:58.768Z,5.97
2022-08-19T22:17:27.429Z,6.90
2022-08-19T22:19:55.909Z,6.00
2022-08-19T22:22:31.252Z,6.07
2022-08-19T22:25:11.540Z,6.47
2022-08-19T22:27:38.655Z,5.80
2022-08-19T22:30:15.000Z,6.33
2022-08-19T22:32:56.201Z,7.03
2022-08-19T22:35:25.332Z,6.00
2022-08-19T22:37:52.231Z,5.97
2022-08-19T22:40:20.061Z,5.67
2022-08-19T22:42:48.530Z,6.03
2022-08-19T22:45:17.400Z,5.90
2022-08-19T22:47:45.306Z,5.90
2022-08-19T22:50:13.928Z,5.80
2022-08-19T22:52:51.694Z,6.40
2022-08-19T22:55:19.225Z,5.77
2022-08-19T22:57:46.001Z,6.20
2022-08-19T23:00:14.506Z,6.40
2022-08-19T23:02:51.704Z,6.70
2022-08-19T23:05:23.373Z,6.30
2022-08-19T23:07:52.568Z,5.93
2022-08-19T23:10:26.938Z,5.93
2022-08-19T23:12:59.276Z,5.83
2022-08-19T23:15:31.797Z,5.97
2022-08-19T23:18:02.459Z,6.67
2022-08-19T23:20:35.123Z,6.17
2022-08-19T23:23:06.550Z,5.67
2022-08-19T23:25:36.476Z,6.23
2022-08-19T23:28:23.951Z,6.07
2022-08-19T23:30:52.944Z,6.80
2022-08-19T23:33:51.634Z,6.30
2022-08-19T23:36:20.435Z,5.83
2022-08-19T23:38:51.858Z,6.33
2022-08-19T23:41:23.032Z,5.87
2022-08-19T23:43:51.483Z,6.07
2022-08-19T23:46:28.015Z,6.50
2022-08-19T23:48:56.714Z,6.23
2022-08-19T23:51:23.826Z,6.57
2022-08-19T23:53:50.658Z,6.73
2022-08-19T23:56:17.454Z,7.03
2022-08-19T23:58:44.277Z,6.73
